createdAt,value
2023-08-15T00:01:29.981Z,100197.23
2023-08-15T00:06:37.876Z,100191.42
2023-08-15T00:11:45.398Z,100189.42
2023-08-15T00:16:53.129Z,100193.40
2023-08-15T00:22:01.074Z,100191.46
2023-08-15T00:27:09.228Z,100185.65
2023-08-15T00:32:17.202Z,100183.20
2023-08-15T00:37:25.150Z,100186.21
2023-08-15T00:42:32.664Z,100186.63
2023-08-15T00:47:41.221Z,100191.11
2023-08-15T00:52:49.238Z,100194.21
2023-08-15T00:57:57.315Z,100191.63
2023-08-15T01:03:05.146Z,100190.42
2023-08-15T01:08:13.561Z,100184.30
2023-08-15T01:13:29.033Z,100178.70
2023-08-15T01:18:42.304Z,100182.39
2023-08-15T01:23:52.433Z,100183.15
2023-08-15T01:29:00.423Z,100183.70
2023-08-15T01:34:14.070Z,100181.59
2023-08-15T01:39:30.308Z,100188.54
2023-08-15T01:44:39.443Z,100188.95
2023-08-15T01:49:47.787Z,100183.08
2023-08-15T01:54:55.865Z,100179.81
2023-08-15T02:00:03.684Z,100178.11
2023-08-15T02:05:23.787Z,100177.02
2023-08-15T02:10:32.145Z,100179.98
2023-08-15T02:15:39.813Z,100182.57
2023-08-15T02:20:47.463Z,100179.44
2023-08-15T02:25:55.494Z,100183.25
2023-08-15T02:31:06.637Z,100186.00
2023-08-15T02:36:15.123Z,100185.88
2023-08-15T02:41:23.599Z,100179.51
2023-08-15T02:46:31.284Z,100181.63
2023-08-15T02:51:38.685Z,100176.10
2023-08-15T02:56:46.260Z,100171.99
2023-08-15T03:01:55.121Z,100167.27
2023-08-15T03:07:02.974Z,100166.02
2023-08-15T03:12:11.400Z,100168.55
2023-08-15T03:17:20.984Z,100174.34
2023-08-15T03:22:29.190Z,100172.55
2023-08-15T03:27:37.541Z,100177.73
2023-08-15T03:32:45.987Z,100178.17
2023-08-15T03:37:54.342Z,100181.63
2023-08-15T03:43:02.695Z,100190.77
2023-08-15T03:48:12.771Z,100194.77
2023-08-15T03:53:20.361Z,100199.71
2023-08-15T03:58:28.405Z,100204.03
2023-08-15T04:03:37.161Z,100204.23
2023-08-15T04:08:45.008Z,100199.84
2023-08-15T04:13:52.903Z,100202.93
2023-08-15T04:19:00.562Z,100195.84
2023-08-15T04:24:09.307Z,100196.02
2023-08-15T04:29:16.975Z,100197.30
2023-08-15T04:34:24.692Z,100198.87
2023-08-15T04:39:32.752Z,100205.92
2023-08-15T04:44:41.482Z,100206.01
2023-08-15T04:49:50.298Z,100211.06
2023-08-15T04:54:58.585Z,100201.07
2023-08-15T05:00:10.364Z,100196.95
2023-08-15T05:05:20.167Z,100196.39
2023-08-15T05:10:28.192Z,100194.16
2023-08-15T05:15:35.843Z,100192.73
2023-08-15T05:20:44.038Z,100190.64
2023-08-15T05:25:51.962Z,100192.20
2023-08-15T05:30:59.845Z,100190.42
2023-08-15T05:36:08.041Z,100190.99
2023-08-15T05:41:15.677Z,100186.40
2023-08-15T05:46:23.281Z,100189.97
2023-08-15T05:51:30.759Z,100200.10
2023-08-15T05:56:38.283Z,100200.30
2023-08-15T06:01:46.117Z,100203.75
2023-08-15T06:06:53.605Z,100199.05
2023-08-15T06:12:01.169Z,100203.66
2023-08-15T06:17:09.408Z,100208.69
2023-08-15T06:22:17.104Z,100205.07
2023-08-15T06:27:24.771Z,100208.19
2023-08-15T06:32:33.602Z,100206.90
2023-08-15T06:37:41.407Z,100207.02
2023-08-15T06:42:49.771Z,100201.05
2023-08-15T06:47:57.370Z,100208.77
2023-08-15T06:53:04.898Z,100196.05
2023-08-15T06:58:12.606Z,100207.63
2023-08-15T07:03:21.359Z,100202.43
2023-08-15T07:08:29.024Z,100195.08
2023-08-15T07:13:36.693Z,100194.21
2023-08-15T07:18:44.096Z,100202.11
2023-08-15T07:23:51.946Z,100197.98
2023-08-15T07:28:59.522Z,100199.42
2023-08-15T07:34:07.634Z,100195.02
2023-08-15T07:39:15.359Z,100199.06
2023-08-15T07:44:23.111Z,100196.86
2023-08-15T07:49:33.762Z,100193.80
2023-08-15T07:54:47.093Z,100189.56
2023-08-15T07:59:54.630Z,100196.56
2023-08-15T08:05:02.090Z,100193.83
2023-08-15T08:10:11.241Z,100195.67
2023-08-15T08:15:18.760Z,100196.30
2023-08-15T08:20:26.928Z,100195.14
2023-08-15T08:25:34.375Z,100194.94
2023-08-15T08:30:44.069Z,100194.63
2023-08-15T08:35:52.180Z,100198.05
2023-08-15T08:41:00.374Z,100193.08
2023-08-15T08:46:11.391Z,100186.81
2023-08-15T08:51:21.116Z,100187.46
2023-08-15T08:56:30.813Z,100178.48
2023-08-15T09:01:40.701Z,100170.18
2023-08-15T09:06:48.835Z,100172.27
2023-08-15T09:11:57.204Z,100164.06
2023-08-15T09:17:04.926Z,100166.40
2023-08-15T09:22:23.280Z,100163.95
2023-08-15T09:27:31.142Z,100160.61
2023-08-15T09:32:38.581Z,100159.10
2023-08-15T09:37:50.472Z,100157.94
2023-08-15T09:42:58.092Z,100158.51
2023-08-15T09:48:07.631Z,100158.61
2023-08-15T09:53:16.438Z,100156.90
2023-08-15T09:58:24.052Z,100156.13
2023-08-15T10:03:36.788Z,100147.32
2023-08-15T10:08:45.447Z,100144.10
2023-08-15T10:13:55.382Z,100141.48
2023-08-15T10:19:04.447Z,100148.84
2023-08-15T10:24:14.351Z,100148.02
2023-08-15T10:29:22.187Z,100145.61
2023-08-15T10:34:34.855Z,100143.96
2023-08-15T10:39:44.478Z,100137.16
2023-08-15T10:45:04.520Z,100138.63
2023-08-15T10:50:14.099Z,100143.36
2023-08-15T10:55:21.923Z,100145.11
2023-08-15T11:00:30.574Z,100144.83
2023-08-15T11:05:38.334Z,100144.20
2023-08-15T11:10:52.016Z,100133.56
2023-08-15T11:16:00.086Z,100137.08
2023-08-15T11:21:10.325Z,100131.45
2023-08-15T11:26:19.747Z,100133.12
2023-08-15T11:31:27.832Z,100130.86
2023-08-15T11:36:35.881Z,100133.55
2023-08-15T11:41:43.863Z,100136.02
2023-08-15T11:46:55.161Z,100134.05
2023-08-15T11:52:08.709Z,100134.48
2023-08-15T11:57:16.414Z,100136.80
2023-08-15T12:02:23.986Z,100139.27
2023-08-15T12:07:36.079Z,100134.30
2023-08-15T12:12:46.140Z,100124.03
2023-08-15T12:17:53.788Z,100124.59
2023-08-15T12:23:01.826Z,100113.16
2023-08-15T12:28:10.686Z,100106.36
2023-08-15T12:33:27.349Z,100101.22
2023-08-15T12:38:46.068Z,100091.39
2023-08-15T12:43:54.187Z,100088.21
2023-08-15T12:49:04.042Z,100087.27
2023-08-15T12:54:11.786Z,100080.69
2023-08-15T12:59:19.735Z,100082.41
2023-08-15T13:04:27.468Z,100087.40
2023-08-15T13:09:35.136Z,100089.59
2023-08-15T13:14:45.892Z,100088.64
2023-08-15T13:19:53.428Z,100081.81
2023-08-15T13:25:01.230Z,100073.13
2023-08-15T13:30:10.618Z,100078.16
2023-08-15T13:35:18.224Z,100076.89
2023-08-15T13:40:25.911Z,100080.94
2023-08-15T13:45:33.731Z,100076.56
2023-08-15T13:50:41.424Z,100075.88
2023-08-15T13:55:49.599Z,100071.73
2023-08-15T14:00:57.077Z,100073.77
2023-08-15T14:06:06.212Z,100071.70
2023-08-15T14:11:13.717Z,100071.69
2023-08-15T14:16:22.026Z,100066.48
2023-08-15T14:21:29.924Z,100070.76
2023-08-15T14:26:37.233Z,100066.70
2023-08-15T14:31:44.571Z,100060.17
2023-08-15T14:36:52.959Z,100061.93
2023-08-15T14:42:00.294Z,100060.84
2023-08-15T14:47:08.352Z,100051.98
2023-08-15T14:52:15.814Z,100052.73
2023-08-15T14:57:23.686Z,100048.45
2023-08-15T15:02:32.177Z,100049.71
2023-08-15T15:07:39.544Z,100046.82
2023-08-15T15:12:47.044Z,100050.08
2023-08-15T15:17:55.186Z,100050.05
2023-08-15T15:23:02.763Z,100050.49
2023-08-15T15:28:10.747Z,100052.23
2023-08-15T15:33:18.833Z,100046.73
2023-08-15T15:38:26.522Z,100042.64
2023-08-15T15:43:34.056Z,100042.76
2023-08-15T15:48:41.468Z,100040.09
2023-08-15T15:53:49.290Z,100042.23
2023-08-15T15:58:57.257Z,100041.14
2023-08-15T16:04:04.954Z,100037.70
2023-08-15T16:09:15.375Z,100038.10
2023-08-15T16:14:23.108Z,100032.86
2023-08-15T16:19:30.755Z,100031.50
2023-08-15T16:24:38.237Z,100033.14
2023-08-15T16:29:45.785Z,100030.48
2023-08-15T16:34:53.586Z,100030.80
2023-08-15T16:40:01.057Z,100028.90
2023-08-15T16:45:10.290Z,100026.49
2023-08-15T16:50:18.294Z,100018.23
2023-08-15T16:55:26.110Z,100022.73
2023-08-15T17:00:34.151Z,100021.59
2023-08-15T17:05:42.049Z,100022.16
2023-08-15T17:10:49.766Z,100023.26
2023-08-15T17:15:57.852Z,100023.76
2023-08-15T17:21:05.818Z,100022.83
2023-08-15T17:26:13.556Z,100027.68
2023-08-15T17:31:21.459Z,100027.59
2023-08-15T17:36:30.631Z,100031.55
2023-08-15T17:41:38.505Z,100036.73
2023-08-15T17:46:46.113Z,100038.10
2023-08-15T17:51:53.906Z,100039.39
2023-08-15T17:57:01.385Z,100042.78
2023-08-15T18:02:09.281Z,100045.08
2023-08-15T18:07:17.341Z,100048.98
2023-08-15T18:12:25.193Z,100054.48
2023-08-15T18:17:32.890Z,100061.85
2023-08-15T18:22:40.428Z,100069.64
2023-08-15T18:27:47.933Z,100068.23
2023-08-15T18:32:55.336Z,100064.52
2023-08-15T18:38:03.066Z,100079.63
2023-08-15T18:43:10.683Z,100085.82
2023-08-15T18:48:19.913Z,100089.41
2023-08-15T18:53:27.746Z,100099.52
2023-08-15T18:58:35.280Z,100102.88
2023-08-15T19:03:43.315Z,100104.22
2023-08-15T19:08:50.914Z,100106.48
2023-08-15T19:13:58.449Z,100112.25
2023-08-15T19:19:06.442Z,100119.73
2023-08-15T19:24:19.353Z,100127.92
2023-08-15T19:29:26.768Z,100128.04
2023-08-15T19:34:34.213Z,100126.11
2023-08-15T19:39:41.943Z,100129.13
2023-08-15T19:44:50.673Z,100126.35
2023-08-15T19:49:58.219Z,100130.79
2023-08-15T19:55:06.818Z,100135.63
2023-08-15T20:00:16.219Z,100138.55
2023-08-15T20:05:23.989Z,100137.16
2023-08-15T20:10:31.867Z,100135.69
2023-08-15T20:15:42.119Z,100137.52
2023-08-15T20:20:50.148Z,100138.61
2023-08-15T20:25:57.739Z,100136.42
2023-08-15T20:31:06.221Z,100134.25
2023-08-15T20:36:15.127Z,100140.31
2023-08-15T20:41:22.637Z,100136.21
2023-08-15T20:46:41.284Z,100137.05
2023-08-15T20:51:49.349Z,100148.20
2023-08-15T20:56:57.334Z,100150.10
2023-08-15T21:02:05.190Z,100150.34
2023-08-15T21:07:14.245Z,100153.76
2023-08-15T21:12:22.108Z,100153.52
2023-08-15T21:17:30.074Z,100153.84
2023-08-15T21:22:38.563Z,100151.42
2023-08-15T21:27:46.533Z,100156.45
2023-08-15T21:32:54.047Z,100157.80
2023-08-15T21:38:02.097Z,100156.55
2023-08-15T21:43:09.806Z,100151.09
2023-08-15T21:48:17.279Z,100149.89
2023-08-15T21:53:24.788Z,100148.92
2023-08-15T21:58:32.414Z,100153.92
2023-08-15T22:03:39.932Z,100151.96
2023-08-15T22:08:47.664Z,100151.68
2023-08-15T22:13:55.047Z,100149.73
2023-08-15T22:19:03.577Z,100147.95
2023-08-15T22:24:11.849Z,100145.45
2023-08-15T22:29:19.719Z,100145.30
2023-08-15T22:34:27.458Z,100148.64
2023-08-15T22:39:35.193Z,100153.42
2023-08-15T22:44:42.710Z,100153.11
2023-08-15T22:49:50.391Z,100152.63
2023-08-15T22:54:57.954Z,100150.61
2023-08-15T23:00:06.446Z,100138.00
2023-08-15T23:05:14.588Z,100148.91
2023-08-15T23:10:22.683Z,100146.04
2023-08-15T23:15:30.234Z,100147.89
2023-08-15T23:20:37.685Z,100150.32
2023-08-15T23:25:45.365Z,100156.34
2023-08-15T23:30:54.963Z,100159.63
2023-08-15T23:36:02.440Z,100156.37
2023-08-15T23:41:09.962Z,100159.48
2023-08-15T23:46:17.268Z,100157.98
2023-08-15T23:51:24.828Z,100157.34
2023-08-15T23:56:32.468Z,100160.30
